Time;durP1;ratioP1;P1;durP2;ratioP2;P2;SDS_P1;SDS_P2;PMS_P1;PMS_P2;Temp;Humidity;BMP_temperature;BMP_pressure;BME280_temperature;BME280_humidity;BME280_pressure;Samples;Min_cycle;Max_cycle;Signal;HPM_P1;HPM_P2
2023/04/26 00:01:37;;;;;;;8.20;7.90;;;1.80;99.90;;;;;;5121915;27;20457;-68
2023/04/26 00:04:07;;;;;;;8.83;8.53;;;1.80;99.90;;;;;;5122789;27;20460;-67
2023/04/26 00:06:36;;;;;;;8.73;8.43;;;1.80;99.90;;;;;;5128268;27;20448;-68
2023/04/26 00:09:03;;;;;;;8.37;8.07;;;1.80;99.90;;;;;;5119570;27;20968;-68
2023/04/26 00:11:30;;;;;;;8.67;8.37;;;1.80;99.90;;;;;;5129673;27;20460;-67
2023/04/26 00:14:00;;;;;;;8.93;8.63;;;1.70;99.90;;;;;;5116288;27;20582;-67
2023/04/26 00:16:27;;;;;;;8.73;8.43;;;1.70;99.90;;;;;;5126595;27;20484;-68
2023/04/26 00:18:55;;;;;;;8.57;8.27;;;1.60;99.90;;;;;;5120012;27;20503;-69
2023/04/26 00:21:22;;;;;;;8.90;8.60;;;1.60;99.90;;;;;;5124519;27;20505;-66
2023/04/26 00:23:52;;;;;;;9.13;8.83;;;1.60;99.90;;;;;;5126124;27;20826;-67
2023/04/26 00:26:18;;;;;;;9.13;8.83;;;1.50;99.90;;;;;;5114479;28;20466;-68
2023/04/26 00:28:45;;;;;;;9.37;9.07;;;1.50;99.90;;;;;;5119612;28;20849;-68
2023/04/26 00:31:16;;;;;;;11.97;11.13;;;1.40;99.90;;;;;;5127796;27;20856;-67
2023/04/26 00:33:44;;;;;;;9.50;9.20;;;1.30;99.90;;;;;;5121462;28;20451;-67
2023/04/26 00:36:13;;;;;;;10.13;9.83;;;1.30;99.90;;;;;;5114725;28;20469;-68
2023/04/26 00:38:41;;;;;;;9.87;9.57;;;1.20;99.90;;;;;;5129150;27;20484;-68
2023/04/26 00:41:09;;;;;;;9.80;9.50;;;1.10;99.90;;;;;;5122245;27;20470;-67
2023/04/26 00:43:35;;;;;;;9.83;9.53;;;1.10;99.90;;;;;;5125516;27;20467;-67
2023/04/26 00:46:04;;;;;;;10.77;10.37;;;1.10;99.90;;;;;;5123977;27;20462;-68
2023/04/26 00:48:33;;;;;;;10.40;10.00;;;1.10;99.90;;;;;;5125173;27;20957;-67
2023/04/26 00:51:02;;;;;;;9.93;9.63;;;1.10;99.90;;;;;;5131212;27;20456;-68
2023/04/26 00:53:30;;;;;;;10.70;10.30;;;1.00;99.90;;;;;;5125343;27;20958;-68
2023/04/26 00:55:58;;;;;;;9.47;9.17;;;1.10;99.90;;;;;;5131677;27;20874;-69
2023/04/26 00:58:26;;;;;;;9.67;9.37;;;1.10;99.90;;;;;;5120602;27;20537;-68
2023/04/26 01:00:53;;;;;;;9.43;9.13;;;1.10;99.90;;;;;;5121212;27;20467;-68
2023/04/26 01:03:20;;;;;;;9.70;9.40;;;1.10;99.90;;;;;;5130024;27;20512;-67
2023/04/26 01:05:48;;;;;;;9.10;8.80;;;1.10;99.90;;;;;;5124691;27;20821;-67
2023/04/26 01:08:19;;;;;;;8.80;8.50;;;1.10;99.90;;;;;;5132561;27;20476;-68
2023/04/26 01:10:47;;;;;;;9.77;9.47;;;1.00;99.90;;;;;;5124886;27;20488;-69
2023/04/26 01:13:15;;;;;;;10.07;9.77;;;0.90;99.90;;;;;;5132183;27;20817;-68
2023/04/26 01:15:45;;;;;;;9.70;9.40;;;0.90;99.90;;;;;;5125896;27;20509;-66
2023/04/26 01:18:12;;;;;;;9.23;8.93;;;0.90;99.90;;;;;;5125376;27;20504;-68
2023/04/26 01:20:41;;;;;;;9.70;9.40;;;0.90;99.90;;;;;;5121695;27;20492;-67
2023/04/26 01:23:11;;;;;;;9.13;8.83;;;0.80;99.90;;;;;;5128864;27;20464;-68
2023/04/26 01:25:39;;;;;;;9.43;9.13;;;0.70;99.90;;;;;;5121755;27;20468;-67
2023/04/26 01:28:06;;;;;;;9.60;9.30;;;0.60;99.90;;;;;;5124778;27;20463;-68
2023/04/26 01:30:33;;;;;;;9.17;8.87;;;0.50;99.90;;;;;;5119195;27;20484;-66
2023/04/26 01:33:00;;;;;;;10.43;10.03;;;0.60;99.90;;;;;;5124607;27;20452;-68
2023/04/26 01:35:27;;;;;;;9.90;9.60;;;0.60;99.90;;;;;;5125077;27;20969;-69
2023/04/26 01:37:54;;;;;;;9.27;8.97;;;0.60;99.90;;;;;;5126844;27;20456;-69
2023/04/26 01:40:22;;;;;;;9.73;9.43;;;0.60;99.90;;;;;;5129623;27;20588;-67
2023/04/26 01:42:49;;;;;;;10.23;9.87;;;0.50;99.90;;;;;;5124705;27;20471;-66
2023/04/26 01:45:16;;;;;;;9.47;9.17;;;0.50;99.90;;;;;;5131606;27;20516;-68
2023/04/26 01:47:43;;;;;;;9.23;8.93;;;0.50;99.90;;;;;;5117813;27;20456;-67
2023/04/26 01:50:12;;;;;;;9.87;9.57;;;0.40;99.90;;;;;;5125417;27;20456;-68
2023/04/26 01:52:39;;;;;;;9.07;8.77;;;0.40;99.90;;;;;;5130489;27;20472;-68
2023/04/26 01:55:08;;;;;;;9.33;9.03;;;0.30;99.90;;;;;;5119008;27;20493;-68
2023/04/26 01:57:37;;;;;;;9.20;8.90;;;0.30;99.90;;;;;;5123353;27;20861;-67
2023/04/26 02:00:05;;;;;;;9.87;9.57;;;0.40;99.90;;;;;;5126159;27;20480;-68
2023/04/26 02:02:32;;;;;;;9.97;9.67;;;0.40;99.90;;;;;;5123107;27;20946;-67
2023/04/26 02:04:59;;;;;;;10.10;9.80;;;0.50;99.90;;;;;;5119151;27;20979;-67
2023/04/26 02:07:26;;;;;;;9.83;9.53;;;0.40;99.90;;;;;;5119066;27;20525;-69
2023/04/26 02:09:53;;;;;;;9.17;8.87;;;0.40;99.90;;;;;;5116256;27;20548;-67
2023/04/26 02:12:21;;;;;;;9.40;9.10;;;0.40;99.90;;;;;;5119780;27;20457;-67
2023/04/26 02:14:50;;;;;;;9.40;9.10;;;0.40;99.90;;;;;;5131413;27;20495;-68
2023/04/26 02:17:17;;;;;;;10.30;9.90;;;0.30;99.90;;;;;;5124265;27;20531;-67
2023/04/26 02:19:45;;;;;;;10.10;9.80;;;0.20;99.90;;;;;;5124734;27;20490;-67
2023/04/26 02:22:13;;;;;;;9.67;9.37;;;0.10;99.90;;;;;;5122473;27;20464;-68
2023/04/26 02:24:41;;;;;;;10.90;10.50;;;0.10;99.90;;;;;;5131196;27;20560;-69
2023/04/26 02:27:08;;;;;;;10.80;10.40;;;0.10;99.90;;;;;;5117032;27;20493;-67
2023/04/26 02:29:35;;;;;;;10.80;10.40;;;0.10;99.90;;;;;;5126505;27;20479;-69
2023/04/26 02:32:04;;;;;;;10.40;10.00;;;0.20;99.90;;;;;;5124141;27;20456;-68
2023/04/26 02:34:31;;;;;;;9.63;9.33;;;0.30;99.90;;;;;;5123572;27;20456;-67
2023/04/26 02:36:58;;;;;;;9.73;9.43;;;0.30;99.90;;;;;;5124908;27;21007;-67
2023/04/26 02:39:27;;;;;;;9.87;9.57;;;0.30;99.90;;;;;;5118549;27;21088;-67
2023/04/26 02:41:54;;;;;;;10.97;10.57;;;0.20;99.90;;;;;;5128406;27;20460;-67
2023/04/26 02:44:21;;;;;;;10.60;10.20;;;0.10;99.90;;;;;;5121377;27;20525;-68
2023/04/26 02:46:47;;;;;;;10.23;9.93;;;-0.10;99.90;;;;;;5127627;27;20467;-69
2023/04/26 02:49:16;;;;;;;11.23;10.83;;;-0.20;99.90;;;;;;5130860;27;20826;-68
2023/04/26 02:51:43;;;;;;;10.10;9.80;;;-0.20;99.90;;;;;;5120566;27;20464;-67
2023/04/26 02:54:11;;;;;;;10.77;10.37;;;-0.20;99.90;;;;;;5129929;27;20934;-67
2023/04/26 02:56:38;;;;;;;11.17;10.77;;;-0.30;99.90;;;;;;5125167;27;20536;-68
2023/04/26 02:59:05;;;;;;;10.17;9.83;;;-0.40;99.90;;;;;;5117977;27;20480;-68
2023/04/26 03:01:34;;;;;;;10.00;9.70;;;-0.40;99.90;;;;;;5123461;27;20500;-67
2023/04/26 03:04:02;;;;;;;10.43;10.03;;;-0.50;99.90;;;;;;5125986;27;20967;-68
2023/04/26 03:06:30;;;;;;;10.97;10.57;;;-0.50;99.90;;;;;;5115145;27;20468;-68
2023/04/26 03:08:57;;;;;;;11.27;10.87;;;-0.50;99.90;;;;;;5124977;27;20510;-69
2023/04/26 03:11:24;;;;;;;11.33;10.93;;;-0.40;99.90;;;;;;5117437;27;20874;-67
2023/04/26 03:13:52;;;;;;;11.17;10.77;;;-0.40;99.90;;;;;;5123420;27;20514;-67
2023/04/26 03:16:22;;;;;;;11.20;10.80;;;-0.30;99.90;;;;;;5124771;27;20489;-68
2023/04/26 03:18:49;;;;;;;11.90;11.23;;;-0.30;99.90;;;;;;5123789;27;20908;-68
2023/04/26 03:21:17;;;;;;;10.40;10.00;;;-0.10;99.90;;;;;;5115349;27;20538;-67
2023/04/26 03:23:45;;;;;;;9.90;9.60;;;-0.10;99.90;;;;;;5125596;27;20464;-68
2023/04/26 03:26:12;;;;;;;10.53;10.13;;;-0.20;99.90;;;;;;5123651;27;20456;-68
2023/04/26 03:28:42;;;;;;;10.03;9.73;;;-0.20;99.90;;;;;;5126480;27;20448;-67
2023/04/26 03:31:11;;;;;;;10.23;9.87;;;-0.20;99.90;;;;;;5121779;27;20504;-68
2023/04/26 03:33:40;;;;;;;10.00;9.70;;;-0.30;99.90;;;;;;5119820;27;20463;-68
2023/04/26 03:36:11;;;;;;;10.87;10.47;;;-0.50;99.90;;;;;;5129795;27;20930;-67
2023/04/26 03:38:38;;;;;;;10.77;10.37;;;-0.50;99.90;;;;;;5118274;27;20481;-67
2023/04/26 03:41:06;;;;;;;10.97;10.57;;;-0.60;99.90;;;;;;5123442;27;20503;-67
2023/04/26 03:43:33;;;;;;;10.50;10.10;;;-0.70;99.90;;;;;;5129008;27;20452;-70
2023/04/26 03:46:01;;;;;;;11.70;11.30;;;-0.70;99.90;;;;;;5122391;27;20468;-68
2023/04/26 03:48:28;;;;;;;11.70;11.30;;;-0.70;99.90;;;;;;5121500;27;20461;-68
2023/04/26 03:50:55;;;;;;;10.63;10.23;;;-0.70;99.90;;;;;;5123931;27;20520;-69
2023/04/26 03:53:22;;;;;;;5.10;5.00;;;-0.70;99.90;;;;;;5116138;27;20865;-68
2023/04/26 03:55:51;;;;;;;5.60;5.40;;;-0.70;99.90;;;;;;5122436;27;20973;-69
2023/04/26 03:58:19;;;;;;;5.27;5.13;;;-0.60;99.90;;;;;;5129866;27;20456;-69
2023/04/26 04:00:46;;;;;;;5.30;5.20;;;-0.70;99.90;;;;;;5115586;27;20484;-69
2023/04/26 04:03:13;;;;;;;4.93;4.83;;;-0.70;99.90;;;;;;5117369;27;20965;-68
2023/04/26 04:05:39;;;;;;;4.93;4.83;;;-0.80;99.90;;;;;;5124190;27;20468;-70
2023/04/26 04:08:07;;;;;;;6.20;6.00;;;-0.80;99.90;;;;;;5128040;27;20487;-70
2023/04/26 04:10:36;;;;;;;5.10;5.00;;;-0.80;99.90;;;;;;5115289;27;20464;-68
2023/04/26 04:13:03;;;;;;;5.57;5.37;;;-0.80;99.90;;;;;;5118417;27;20474;-67
2023/04/26 04:15:32;;;;;;;5.80;5.60;;;-0.70;99.90;;;;;;5116088;27;20836;-69
2023/04/26 04:17:59;;;;;;;5.30;5.20;;;-0.60;99.90;;;;;;5119099;27;20873;-69
2023/04/26 04:20:26;;;;;;;5.53;5.33;;;-0.50;99.90;;;;;;5117427;28;20484;-68
2023/04/26 04:22:54;;;;;;;5.50;5.40;;;-0.60;99.90;;;;;;5127473;27;20463;-69
2023/04/26 04:25:21;;;;;;;5.20;5.10;;;-0.70;99.90;;;;;;5129624;27;20473;-68
2023/04/26 04:27:49;;;;;;;5.23;5.13;;;-0.80;99.90;;;;;;5114955;27;20453;-68
2023/04/26 04:30:16;;;;;;;5.00;4.90;;;-0.80;99.90;;;;;;5114752;27;20522;-69
2023/04/26 04:32:45;;;;;;;5.37;5.27;;;-0.80;99.90;;;;;;5118239;28;20452;-68
2023/04/26 04:35:13;;;;;;;5.00;4.90;;;-0.70;99.90;;;;;;5127252;27;20471;-68
2023/04/26 04:37:42;;;;;;;4.80;4.70;;;-0.70;99.90;;;;;;5118091;27;20821;-68
2023/04/26 04:40:12;;;;;;;5.80;5.60;;;-0.70;99.90;;;;;;5117964;27;20838;-68
2023/04/26 04:42:38;;;;;;;6.47;6.27;;;-0.60;99.90;;;;;;5120395;28;20456;-69
2023/04/26 04:45:08;;;;;;;5.60;5.40;;;-0.40;99.90;;;;;;5128863;27;20495;-69
2023/04/26 04:47:36;;;;;;;5.57;5.37;;;-0.20;99.90;;;;;;5125027;27;21228;-70
2023/04/26 04:50:05;;;;;;;5.93;5.73;;;-0.10;99.90;;;;;;5120107;27;20453;-69
2023/04/26 04:52:32;;;;;;;5.53;5.33;;;-0.10;99.90;;;;;;5124570;27;20475;-68
2023/04/26 04:55:02;;;;;;;5.67;5.47;;;-0.10;99.90;;;;;;5123492;27;20551;-68
2023/04/26 04:57:29;;;;;;;5.10;5.00;;;0.00;99.90;;;;;;5116303;28;20505;-69
2023/04/26 04:59:57;;;;;;;5.70;5.50;;;0.30;99.90;;;;;;5127881;27;20513;-68
2023/04/26 05:02:24;;;;;;;5.00;4.80;;;0.50;99.90;;;;;;5113438;27;20501;-68
2023/04/26 05:04:52;;;;;;;4.97;4.87;;;0.50;99.90;;;;;;5117608;28;20489;-68
2023/04/26 05:07:20;;;;;;;5.10;5.00;;;0.40;99.90;;;;;;5107932;28;20484;-68
2023/04/26 05:09:48;;;;;;;5.77;5.57;;;0.40;99.90;;;;;;5121829;28;20978;-68
2023/04/26 05:12:14;;;;;;;8.00;7.70;;;0.70;99.90;;;;;;5116568;27;20456;-69
2023/04/26 05:14:41;;;;;;;6.80;6.60;;;0.90;99.90;;;;;;5115820;27;20440;-69
2023/04/26 05:17:08;;;;;;;6.63;6.43;;;1.10;99.90;;;;;;5118593;28;20491;-69
2023/04/26 05:19:35;;;;;;;6.10;5.90;;;1.10;99.90;;;;;;5118855;28;20564;-68
2023/04/26 05:22:02;;;;;;;9.27;8.80;;;1.20;99.90;;;;;;5118454;27;20462;-69
2023/04/26 05:24:31;;;;;;;8.27;7.97;;;1.20;99.90;;;;;;5122477;27;20464;-67
2023/04/26 05:26:58;;;;;;;9.00;8.60;;;1.30;99.90;;;;;;5116759;27;20970;-68
2023/04/26 05:29:28;;;;;;;8.30;8.00;;;1.40;99.90;;;;;;5118307;27;20540;-68
2023/04/26 05:31:55;;;;;;;11.20;10.70;;;1.40;99.90;;;;;;5119603;27;20492;-68
2023/04/26 05:34:22;;;;;;;8.80;8.50;;;1.50;99.90;;;;;;5117614;27;20911;-69
2023/04/26 05:36:50;;;;;;;10.17;9.77;;;1.70;99.90;;;;;;5121016;27;20460;-69
2023/04/26 05:39:18;;;;;;;11.43;10.93;;;1.80;99.90;;;;;;5124288;27;20568;-69
2023/04/26 05:41:46;;;;;;;10.17;9.77;;;1.90;99.90;;;;;;5115408;27;20519;-69
2023/04/26 05:44:13;;;;;;;10.87;10.47;;;2.00;99.90;;;;;;5125022;27;20821;-67
2023/04/26 05:46:41;;;;;;;10.70;10.30;;;2.10;99.90;;;;;;5122089;27;20513;-68
2023/04/26 05:49:08;;;;;;;9.83;9.53;;;2.20;99.90;;;;;;5121339;27;20508;-68
2023/04/26 05:51:35;;;;;;;11.50;11.10;;;2.30;99.90;;;;;;5121344;27;20462;-68
2023/04/26 05:54:03;;;;;;;10.97;10.57;;;2.40;99.90;;;;;;5126294;27;20984;-68
2023/04/26 05:56:30;;;;;;;10.90;10.50;;;2.50;99.90;;;;;;5124184;27;20455;-68
2023/04/26 05:58:58;;;;;;;14.20;13.30;;;2.50;99.90;;;;;;5123535;27;20480;-68
2023/04/26 06:01:26;;;;;;;12.00;11.50;;;2.70;99.90;;;;;;5120408;27;20495;-68
2023/04/26 06:03:53;;;;;;;11.23;10.83;;;2.80;99.90;;;;;;5123229;27;20453;-68
2023/04/26 06:06:20;;;;;;;11.90;11.40;;;2.90;99.90;;;;;;5119726;27;20468;-68
2023/04/26 06:08:47;;;;;;;11.63;11.13;;;3.00;99.90;;;;;;5122034;27;20505;-68
2023/04/26 06:11:14;;;;;;;12.27;11.77;;;3.20;99.90;;;;;;5118531;27;20471;-69
2023/04/26 06:13:41;;;;;;;12.43;11.93;;;3.30;99.90;;;;;;5129358;27;20479;-69
2023/04/26 06:16:10;;;;;;;11.40;11.00;;;3.50;99.90;;;;;;5124477;27;20483;-69
2023/04/26 06:18:37;;;;;;;12.10;11.60;;;3.60;99.90;;;;;;5122214;27;20761;-67
2023/04/26 06:21:04;;;;;;;11.10;10.70;;;3.70;99.90;;;;;;5120959;27;20488;-68
2023/04/26 06:23:30;;;;;;;13.33;12.77;;;4.00;99.90;;;;;;5124732;27;20452;-68
2023/04/26 06:25:57;;;;;;;10.60;10.20;;;4.10;99.90;;;;;;5118137;27;20572;-69
2023/04/26 06:28:25;;;;;;;11.30;10.80;;;4.30;99.90;;;;;;5128187;27;20453;-69
2023/04/26 06:30:53;;;;;;;9.90;9.60;;;4.60;99.90;;;;;;5118383;27;20967;-68
2023/04/26 06:33:22;;;;;;;17.27;15.87;;;4.70;99.90;;;;;;5121389;27;20468;-69
2023/04/26 06:35:49;;;;;;;11.63;11.17;;;4.90;99.90;;;;;;5120040;27;20975;-68
2023/04/26 06:38:16;;;;;;;12.80;11.73;;;5.10;99.90;;;;;;5130574;27;20464;-69
2023/04/26 06:40:43;;;;;;;9.63;9.33;;;5.30;99.90;;;;;;5120386;27;20489;-68
2023/04/26 06:43:11;;;;;;;8.27;7.97;;;5.40;99.90;;;;;;5122247;27;20468;-69
2023/04/26 06:45:38;;;;;;;8.60;8.30;;;5.70;99.90;;;;;;5118828;27;20463;-69
2023/04/26 06:48:05;;;;;;;9.67;9.30;;;5.70;99.90;;;;;;5124548;27;20950;-68
2023/04/26 06:50:37;;;;;;;8.97;8.67;;;5.70;99.90;;;;;;5125571;27;20699;-68
2023/04/26 06:53:04;;;;;;;8.47;8.17;;;5.90;99.90;;;;;;5116776;27;20970;-68
2023/04/26 06:55:31;;;;;;;8.23;7.93;;;6.10;99.90;;;;;;5119022;27;20464;-68
2023/04/26 06:57:59;;;;;;;7.93;7.63;;;6.00;99.90;;;;;;5116369;27;21009;-69
2023/04/26 07:00:26;;;;;;;6.90;6.70;;;6.00;99.90;;;;;;5128298;27;20472;-69
2023/04/26 07:02:53;;;;;;;6.10;5.90;;;6.20;99.90;;;;;;5124970;27;20456;-69
2023/04/26 07:05:21;;;;;;;7.33;6.83;;;6.40;99.90;;;;;;5121590;27;20786;-69
2023/04/26 07:07:50;;;;;;;6.90;6.70;;;6.70;99.90;;;;;;5120254;27;20485;-69
2023/04/26 07:10:16;;;;;;;7.10;6.90;;;6.60;99.90;;;;;;5117158;27;20465;-69
2023/04/26 07:12:43;;;;;;;7.00;6.80;;;6.80;99.90;;;;;;5122348;27;20452;-69
2023/04/26 07:15:11;;;;;;;8.50;8.00;;;7.00;99.90;;;;;;5121273;27;20457;-69
2023/04/26 07:17:38;;;;;;;11.33;10.53;;;7.20;99.90;;;;;;5122009;27;20472;-69
2023/04/26 07:20:07;;;;;;;8.80;8.50;;;7.30;99.90;;;;;;5119918;27;20463;-69
2023/04/26 07:22:35;;;;;;;10.30;9.90;;;7.30;99.90;;;;;;5122994;27;20824;-70
2023/04/26 07:25:04;;;;;;;11.40;11.00;;;7.40;99.90;;;;;;5121246;27;20533;-69
2023/04/26 07:27:32;;;;;;;11.10;10.70;;;7.70;99.90;;;;;;5122099;27;20459;-69
2023/04/26 07:29:59;;;;;;;11.50;10.90;;;8.00;99.90;;;;;;5121345;27;20878;-68
2023/04/26 07:32:27;;;;;;;12.13;11.63;;;8.10;99.90;;;;;;5120261;27;20457;-69
2023/04/26 07:34:54;;;;;;;14.13;13.43;;;7.90;99.90;;;;;;5120776;27;20996;-69
2023/04/26 07:37:22;;;;;;;12.90;12.40;;;7.90;99.90;;;;;;5126150;27;20460;-70
2023/04/26 07:39:49;;;;;;;14.10;13.50;;;8.00;99.90;;;;;;5120055;27;20460;-70
2023/04/26 07:42:17;;;;;;;14.30;13.70;;;8.30;99.90;;;;;;5121297;27;20553;-70
2023/04/26 07:44:44;;;;;;;14.20;13.60;;;8.40;99.90;;;;;;5125130;27;20455;-69
2023/04/26 07:47:13;;;;;;;15.60;14.90;;;8.60;99.90;;;;;;5125918;27;20863;-70
2023/04/26 07:49:41;;;;;;;15.43;14.73;;;9.00;99.90;;;;;;5121540;27;20574;-70
2023/04/26 07:52:09;;;;;;;14.93;14.23;;;8.80;99.90;;;;;;5123267;27;20511;-70
2023/04/26 07:54:36;;;;;;;17.17;16.17;;;8.60;99.90;;;;;;5124119;27;20457;-69
2023/04/26 07:57:03;;;;;;;15.63;14.93;;;8.50;99.90;;;;;;5123668;27;20453;-69
2023/04/26 07:59:33;;;;;;;15.77;14.97;;;8.30;99.90;;;;;;5129322;27;20452;-69
2023/04/26 08:02:00;;;;;;;15.83;15.13;;;8.50;99.90;;;;;;5114082;27;20485;-70
2023/04/26 08:04:32;;;;;;;16.13;15.23;;;9.00;99.90;;;;;;5122032;27;21033;-69
2023/04/26 08:07:00;;;;;;;18.40;17.03;;;9.00;99.90;;;;;;5119804;27;20599;-69
2023/04/26 08:09:27;;;;;;;17.93;16.73;;;9.10;99.90;;;;;;5118221;27;20467;-69
2023/04/26 08:11:56;;;;;;;14.83;14.23;;;8.80;99.90;;;;;;5120929;27;20520;-69
2023/04/26 08:14:23;;;;;;;16.80;16.00;;;9.00;99.90;;;;;;5120191;27;20520;-69
2023/04/26 08:16:51;;;;;;;16.03;15.30;;;9.00;99.90;;;;;;5120793;27;20566;-69
2023/04/26 08:19:19;;;;;;;16.03;15.33;;;9.30;99.90;;;;;;5118409;27;20448;-70
2023/04/26 08:21:46;;;;;;;17.43;15.90;;;9.80;99.90;;;;;;5118182;27;21025;-70
2023/04/26 08:24:13;;;;;;;16.93;15.93;;;10.10;99.90;;;;;;5116945;27;20810;-70
2023/04/26 08:26:40;;;;;;;15.33;14.63;;;10.20;99.90;;;;;;5114117;27;20452;-70
2023/04/26 08:29:07;;;;;;;15.03;14.43;;;9.60;99.90;;;;;;5121364;27;20954;-69
2023/04/26 08:31:35;;;;;;;15.40;14.70;;;9.40;99.90;;;;;;5119580;27;20457;-69
2023/04/26 08:34:03;;;;;;;15.40;14.70;;;10.00;99.90;;;;;;5117940;27;20548;-68
2023/04/26 08:36:31;;;;;;;15.60;14.80;;;10.40;99.90;;;;;;5120580;27;20526;-68
2023/04/26 08:38:58;;;;;;;14.93;14.33;;;10.70;99.90;;;;;;5117757;27;20468;-68
2023/04/26 08:41:27;;;;;;;16.57;15.67;;;10.50;99.90;;;;;;5121595;27;20514;-70
2023/04/26 08:43:57;;;;;;;16.73;15.93;;;10.60;99.90;;;;;;5123417;27;20463;-68
2023/04/26 08:46:30;;;;;;;16.20;15.50;;;11.20;99.90;;;;;;5123144;27;20460;-68
2023/04/26 08:49:13;;;;;;;16.87;16.07;;;11.90;99.90;;;;;;5122086;27;20487;-69
2023/04/26 08:51:41;;;;;;;15.93;15.23;;;12.10;99.90;;;;;;5114475;27;20539;-68
2023/04/26 08:54:09;;;;;;;16.60;15.87;;;12.50;99.90;;;;;;5116049;27;21027;-69
2023/04/26 08:56:36;;;;;;;26.63;16.93;;;12.40;99.90;;;;;;5127087;27;20524;-68
2023/04/26 08:59:02;;;;;;;16.00;15.30;;;12.50;99.90;;;;;;5114783;27;21279;-68
2023/04/26 09:01:31;;;;;;;16.73;16.03;;;12.60;99.90;;;;;;5118474;27;20480;-68
2023/04/26 09:04:00;;;;;;;17.70;16.90;;;12.20;99.90;;;;;;5121417;27;20453;-68
2023/04/26 09:06:30;;;;;;;16.77;15.97;;;12.70;99.90;;;;;;5129272;27;20462;-68
2023/04/26 09:08:59;;;;;;;16.33;15.63;;;12.80;99.90;;;;;;5121347;27;20494;-69
2023/04/26 09:11:26;;;;;;;17.77;16.67;;;12.50;99.90;;;;;;5125031;27;20460;-69
2023/04/26 09:13:53;;;;;;;15.63;14.93;;;12.50;99.90;;;;;;5124344;27;20464;-68
2023/04/26 09:16:34;;;;;;;16.00;15.30;;;12.90;99.90;;;;;;5126484;27;20993;-69
2023/04/26 09:19:01;;;;;;;16.13;15.43;;;13.00;99.90;;;;;;5120522;27;20819;-69
2023/04/26 09:21:30;;;;;;;16.20;15.50;;;13.40;99.90;;;;;;5124977;27;20540;-69
2023/04/26 09:23:58;;;;;;;15.23;14.63;;;13.00;99.90;;;;;;5127560;27;20455;-70
2023/04/26 09:26:25;;;;;;;16.30;15.60;;;12.70;99.90;;;;;;5127622;27;20540;-70
2023/04/26 09:29:12;;;;;;;15.10;14.47;;;12.10;99.90;;;;;;5118480;27;20467;-69
2023/04/26 09:31:41;;;;;;;15.70;15.00;;;11.80;99.90;;;;;;5121354;27;20542;-70
2023/04/26 09:34:10;;;;;;;16.20;15.50;;;13.40;99.90;;;;;;5125771;27;20970;-69
2023/04/26 09:36:55;;;;;;;17.20;16.40;;;13.80;99.90;;;;;;5124862;27;20564;-69
2023/04/26 09:39:33;;;;;;;17.00;16.23;;;13.30;99.10;;;;;;5127960;27;20551;-70
2023/04/26 09:42:01;;;;;;;16.23;15.53;;;12.70;99.10;;;;;;5117088;27;20495;-69
2023/04/26 09:44:30;;;;;;;16.30;15.60;;;12.80;99.30;;;;;;5121674;27;20464;-69
2023/04/26 09:47:00;;;;;;;16.77;16.07;;;13.00;99.30;;;;;;5129379;27;20452;-70
2023/04/26 09:49:27;;;;;;;17.27;16.47;;;12.90;97.40;;;;;;5118781;27;20483;-69
2023/04/26 09:52:07;;;;;;;17.10;16.30;;;12.70;98.40;;;;;;5121203;27;20471;-69
2023/04/26 09:54:42;;;;;;;15.87;15.20;;;13.10;96.00;;;;;;5112896;27;20476;-69
2023/04/26 09:57:09;;;;;;;15.37;14.77;;;13.20;94.90;;;;;;5128074;27;20452;-69
2023/04/26 09:59:41;;;;;;;15.70;15.10;;;14.20;96.20;;;;;;5117372;27;21013;-69
2023/04/26 10:02:14;;;;;;;16.70;16.00;;;15.10;93.30;;;;;;5120343;27;20993;-69
2023/04/26 10:04:45;;;;;;;15.90;15.20;;;15.20;85.30;;;;;;5122497;27;20463;-69
2023/04/26 10:07:14;;;;;;;16.40;15.67;;;15.50;80.10;;;;;;5125838;27;20516;-69
2023/04/26 10:09:42;;;;;;;15.93;15.23;;;16.10;78.50;;;;;;5124550;27;20456;-70
2023/04/26 10:12:10;;;;;;;16.07;15.37;;;15.90;80.20;;;;;;5117879;27;20472;-70
2023/04/26 10:14:38;;;;;;;15.10;14.50;;;15.90;83.80;;;;;;5117990;27;21253;-69
2023/04/26 10:17:06;;;;;;;15.47;14.87;;;15.60;78.90;;;;;;5120535;27;20998;-68
2023/04/26 10:19:35;;;;;;;16.40;15.70;;;16.40;76.60;;;;;;5118798;27;21017;-68
2023/04/26 10:22:06;;;;;;;16.23;15.53;;;17.10;78.10;;;;;;5124116;27;21029;-70
2023/04/26 10:24:36;;;;;;;16.20;15.50;;;17.40;77.80;;;;;;5116709;27;20510;-69
2023/04/26 10:27:04;;;;;;;16.37;15.67;;;17.10;77.40;;;;;;5125676;27;20460;-67
2023/04/26 10:30:07;;;;;;;16.40;15.70;;;17.10;78.00;;;;;;5122941;27;20805;-68
2023/04/26 10:33:16;;;;;;;16.70;15.90;;;17.80;73.40;;;;;;5116976;27;20453;-68
2023/04/26 10:36:03;;;;;;;16.93;16.03;;;17.80;73.50;;;;;;5118538;27;20968;-68
2023/04/26 10:38:30;;;;;;;15.70;15.00;;;15.60;71.50;;;;;;5118859;27;20502;-67
2023/04/26 10:41:33;;;;;;;16.17;15.37;;;15.80;72.70;;;;;;5126734;27;20876;-67
2023/04/26 10:44:21;;;;;;;16.20;15.30;;;16.30;71.10;;;;;;5127081;27;20459;-68
2023/04/26 10:46:51;;;;;;;16.50;15.80;;;15.20;68.90;;;;;;5121739;27;20464;-68
2023/04/26 10:49:21;;;;;;;15.87;15.27;;;15.80;70.00;;;;;;5124670;27;20449;-67
2023/04/26 10:52:15;;;;;;;17.20;16.40;;;16.20;68.30;;;;;;5117662;27;20468;-67
2023/04/26 10:54:52;;;;;;;16.77;15.97;;;16.30;71.00;;;;;;5118071;27;20452;-67
2023/04/26 10:57:23;;;;;;;16.40;15.70;;;14.80;72.60;;;;;;5123533;27;20483;-67
2023/04/26 11:00:19;;;;;;;16.00;15.30;;;15.30;74.90;;;;;;5125248;27;20506;-67
2023/04/26 11:02:53;;;;;;;15.63;15.03;;;14.90;73.00;;;;;;5124977;27;20853;-68
2023/04/26 11:05:57;;;;;;;15.60;15.00;;;15.50;72.50;;;;;;5117858;27;20452;-68
2023/04/26 11:08:28;;;;;;;15.97;15.30;;;16.20;72.40;;;;;;5115165;27;20851;-68
2023/04/26 11:11:10;;;;;;;16.60;15.90;;;17.20;72.50;;;;;;5117845;27;20456;-68
2023/04/26 11:13:41;;;;;;;15.47;14.87;;;17.10;70.40;;;;;;5123279;27;20575;-67
2023/04/26 11:16:09;;;;;;;16.67;15.10;;;16.40;69.40;;;;;;5118644;27;21002;-67
2023/04/26 11:18:39;;;;;;;16.83;16.03;;;16.00;69.10;;;;;;5124189;27;20818;-68
2023/04/26 11:21:07;;;;;;;15.70;15.10;;;15.50;68.50;;;;;;5115512;27;20500;-68
2023/04/26 11:23:34;;;;;;;15.93;15.17;;;14.30;69.90;;;;;;5116038;27;20496;-67
2023/04/26 11:26:02;;;;;;;15.77;15.07;;;15.40;70.90;;;;;;5124740;27;20456;-68
2023/04/26 11:28:30;;;;;;;15.43;14.83;;;15.80;69.80;;;;;;5127748;27;20460;-68
2023/04/26 11:30:59;;;;;;;16.00;15.30;;;16.30;69.70;;;;;;5114785;27;20472;-67
2023/04/26 11:33:26;;;;;;;16.20;14.90;;;16.30;68.50;;;;;;5116616;27;20449;-67
2023/04/26 11:35:55;;;;;;;14.80;14.20;;;16.20;68.80;;;;;;5121620;27;20457;-68
2023/04/26 11:38:24;;;;;;;15.10;14.50;;;16.50;68.60;;;;;;5124137;27;20473;-67
2023/04/26 11:40:55;;;;;;;15.03;14.43;;;16.20;67.90;;;;;;5107934;27;20474;-67
2023/04/26 11:43:22;;;;;;;15.77;15.07;;;16.10;69.10;;;;;;5123078;27;20502;-67
2023/04/26 11:45:49;;;;;;;15.20;14.60;;;16.80;67.80;;;;;;5126216;27;20712;-67
2023/04/26 11:48:18;;;;;;;15.40;14.80;;;17.00;69.60;;;;;;5114555;27;20490;-67
2023/04/26 11:50:46;;;;;;;14.60;14.00;;;16.60;70.00;;;;;;5120846;27;20460;-68
2023/04/26 11:53:14;;;;;;;15.60;15.00;;;15.70;67.70;;;;;;5125334;27;20615;-68
2023/04/26 11:55:40;;;;;;;16.20;15.50;;;16.50;69.00;;;;;;5116230;27;20550;-67
2023/04/26 11:58:13;;;;;;;16.23;15.27;;;17.60;68.40;;;;;;5128855;27;20545;-68
2023/04/26 12:00:56;;;;;;;17.80;16.70;;;17.60;68.20;;;;;;5122368;27;20459;-66
2023/04/26 12:03:29;;;;;;;16.03;15.33;;;16.50;66.20;;;;;;5126544;27;20494;-66
2023/04/26 12:05:56;;;;;;;16.40;15.50;;;15.40;70.00;;;;;;5112586;27;20965;-66
2023/04/26 12:08:25;;;;;;;15.60;15.00;;;14.60;69.10;;;;;;5116451;27;20521;-65
2023/04/26 12:10:53;;;;;;;14.90;14.30;;;14.50;68.80;;;;;;5118981;27;20463;-66
2023/04/26 12:13:20;;;;;;;16.90;15.87;;;15.50;69.70;;;;;;5118201;27;20457;-67
2023/04/26 12:15:50;;;;;;;16.93;16.03;;;15.80;66.90;;;;;;5126774;27;20968;-66
2023/04/26 12:18:18;;;;;;;16.03;15.33;;;15.30;69.90;;;;;;5121238;27;20485;-66
2023/04/26 12:20:46;;;;;;;15.23;14.63;;;15.20;69.70;;;;;;5118628;27;20552;-65
2023/04/26 12:23:15;;;;;;;17.60;16.73;;;15.00;70.30;;;;;;5123736;28;21036;-67
2023/04/26 12:25:53;;;;;;;17.07;16.27;;;15.10;70.40;;;;;;5117794;27;21321;-65
2023/04/26 12:28:22;;;;;;;16.60;15.90;;;15.30;69.50;;;;;;5122706;28;20562;-66
2023/04/26 12:30:49;;;;;;;15.27;14.67;;;15.50;68.90;;;;;;5125640;27;20571;-67
2023/04/26 12:33:21;;;;;;;15.23;14.63;;;15.70;68.50;;;;;;5119923;27;20452;-67
2023/04/26 12:35:49;;;;;;;16.50;15.80;;;16.00;68.90;;;;;;5116458;27;20492;-68
2023/04/26 12:38:17;;;;;;;14.83;14.23;;;16.80;68.40;;;;;;5121435;27;20824;-67
2023/04/26 12:40:43;;;;;;;15.30;14.70;;;17.70;66.20;;;;;;5128148;27;20452;-67
2023/04/26 12:43:11;;;;;;;15.57;14.77;;;18.40;64.70;;;;;;5126541;27;20487;-67
2023/04/26 12:45:38;;;;;;;14.83;14.23;;;18.60;62.00;;;;;;5130122;27;20531;-67
2023/04/26 12:48:06;;;;;;;14.93;14.33;;;19.70;61.00;;;;;;5119785;27;20813;-66